sensor_id;sensor_type;location;lat;lon;timestamp;P1;durP1;ratioP1;P2;durP2;ratioP2
20462;SDS011;10390;53.566;9.980;2023-07-02T00:01:44;6.78;;;5.40;;
20462;SDS011;10390;53.566;9.980;2023-07-02T00:04:10;6.35;;;4.95;;
20462;SDS011;10390;53.566;9.980;2023-07-02T00:06:40;6.30;;;5.18;;
20462;SDS011;10390;53.566;9.980;2023-07-02T00:09:07;6.65;;;4.82;;
20462;SDS011;10390;53.566;9.980;2023-07-02T00:11:33;6.70;;;5.05;;
20462;SDS011;10390;53.566;9.980;2023-07-02T00:13:59;7.63;;;5.32;;
20462;SDS011;10390;53.566;9.980;2023-07-02T00:16:25;6.47;;;4.90;;
20462;SDS011;10390;53.566;9.980;2023-07-02T00:18:50;5.88;;;4.68;;
20462;SDS011;10390;53.566;9.980;2023-07-02T00:21:19;6.47;;;5.45;;
20462;SDS011;10390;53.566;9.980;2023-07-02T00:23:47;7.07;;;4.82;;
20462;SDS011;10390;53.566;9.980;2023-07-02T00:26:13;6.60;;;5.18;;
20462;SDS011;10390;53.566;9.980;2023-07-02T00:28:38;8.60;;;5.53;;
20462;SDS011;10390;53.566;9.980;2023-07-02T00:31:04;7.40;;;5.53;;
20462;SDS011;10390;53.566;9.980;2023-07-02T00:33:31;9.70;;;5.57;;
20462;SDS011;10390;53.566;9.980;2023-07-02T00:35:56;8.68;;;5.80;;
20462;SDS011;10390;53.566;9.980;2023-07-02T00:38:25;6.57;;;5.30;;
20462;SDS011;10390;53.566;9.980;2023-07-02T00:40:57;6.80;;;4.95;;
20462;SDS011;10390;53.566;9.980;2023-07-02T00:43:23;6.65;;;5.63;;
20462;SDS011;10390;53.566;9.980;2023-07-02T00:45:48;5.72;;;5.10;;
20462;SDS011;10390;53.566;9.980;2023-07-02T00:48:14;7.32;;;5.22;;
20462;SDS011;10390;53.566;9.980;2023-07-02T00:50:40;8.05;;;5.45;;
20462;SDS011;10390;53.566;9.980;2023-07-02T00:53:06;7.40;;;5.75;;
20462;SDS011;10390;53.566;9.980;2023-07-02T00:55:31;7.20;;;5.40;;
20462;SDS011;10390;53.566;9.980;2023-07-02T00:57:57;6.63;;;5.32;;
20462;SDS011;10390;53.566;9.980;2023-07-02T01:00:22;7.65;;;5.70;;
20462;SDS011;10390;53.566;9.980;2023-07-02T01:02:54;6.43;;;5.35;;
20462;SDS011;10390;53.566;9.980;2023-07-02T01:05:26;7.43;;;5.03;;
20462;SDS011;10390;53.566;9.980;2023-07-02T01:08:01;6.68;;;4.80;;
20462;SDS011;10390;53.566;9.980;2023-07-02T01:10:33;7.00;;;4.80;;
20462;SDS011;10390;53.566;9.980;2023-07-02T01:13:00;7.75;;;5.30;;
20462;SDS011;10390;53.566;9.980;2023-07-02T01:15:32;6.15;;;4.55;;
20462;SDS011;10390;53.566;9.980;2023-07-02T01:17:58;7.43;;;4.97;;
20462;SDS011;10390;53.566;9.980;2023-07-02T01:20:24;5.68;;;5.03;;
20462;SDS011;10390;53.566;9.980;2023-07-02T01:22:52;7.53;;;5.25;;
20462;SDS011;10390;53.566;9.980;2023-07-02T01:25:18;5.93;;;4.72;;
20462;SDS011;10390;53.566;9.980;2023-07-02T01:27:44;6.30;;;4.88;;
20462;SDS011;10390;53.566;9.980;2023-07-02T01:30:09;8.88;;;5.57;;
20462;SDS011;10390;53.566;9.980;2023-07-02T01:32:36;5.80;;;4.55;;
20462;SDS011;10390;53.566;9.980;2023-07-02T01:35:02;5.53;;;4.30;;
20462;SDS011;10390;53.566;9.980;2023-07-02T01:37:28;5.63;;;5.00;;
20462;SDS011;10390;53.566;9.980;2023-07-02T01:40:02;7.88;;;5.05;;
20462;SDS011;10390;53.566;9.980;2023-07-02T01:42:31;6.35;;;4.80;;
20462;SDS011;10390;53.566;9.980;2023-07-02T01:44:57;7.28;;;4.82;;
20462;SDS011;10390;53.566;9.980;2023-07-02T01:47:22;7.40;;;4.60;;
20462;SDS011;10390;53.566;9.980;2023-07-02T01:49:49;5.63;;;4.55;;
20462;SDS011;10390;53.566;9.980;2023-07-02T01:52:15;5.32;;;4.70;;
20462;SDS011;10390;53.566;9.980;2023-07-02T01:54:41;7.20;;;5.22;;
20462;SDS011;10390;53.566;9.980;2023-07-02T01:57:07;6.20;;;5.28;;
20462;SDS011;10390;53.566;9.980;2023-07-02T01:59:33;5.68;;;4.85;;
20462;SDS011;10390;53.566;9.980;2023-07-02T02:01:59;8.20;;;5.45;;
20462;SDS011;10390;53.566;9.980;2023-07-02T02:04:25;7.93;;;5.35;;
20462;SDS011;10390;53.566;9.980;2023-07-02T02:06:51;5.75;;;5.05;;
20462;SDS011;10390;53.566;9.980;2023-07-02T02:09:17;7.25;;;5.47;;
20462;SDS011;10390;53.566;9.980;2023-07-02T02:11:45;6.88;;;5.20;;
20462;SDS011;10390;53.566;9.980;2023-07-02T02:14:13;6.63;;;5.15;;
20462;SDS011;10390;53.566;9.980;2023-07-02T02:16:38;5.75;;;4.78;;
20462;SDS011;10390;53.566;9.980;2023-07-02T02:19:04;6.55;;;5.07;;
20462;SDS011;10390;53.566;9.980;2023-07-02T02:21:30;5.65;;;4.57;;
20462;SDS011;10390;53.566;9.980;2023-07-02T02:23:56;7.47;;;5.13;;
20462;SDS011;10390;53.566;9.980;2023-07-02T02:26:22;7.07;;;4.90;;
20462;SDS011;10390;53.566;9.980;2023-07-02T02:28:50;6.45;;;5.07;;
20462;SDS011;10390;53.566;9.980;2023-07-02T02:31:16;7.03;;;5.43;;
20462;SDS011;10390;53.566;9.980;2023-07-02T02:33:42;7.68;;;4.88;;
20462;SDS011;10390;53.566;9.980;2023-07-02T02:36:08;8.25;;;5.00;;
20462;SDS011;10390;53.566;9.980;2023-07-02T02:38:33;6.25;;;4.63;;
20462;SDS011;10390;53.566;9.980;2023-07-02T02:40:59;6.43;;;5.05;;
20462;SDS011;10390;53.566;9.980;2023-07-02T02:43:26;5.78;;;5.03;;
20462;SDS011;10390;53.566;9.980;2023-07-02T02:45:52;7.80;;;5.03;;
20462;SDS011;10390;53.566;9.980;2023-07-02T02:48:17;5.82;;;5.05;;
20462;SDS011;10390;53.566;9.980;2023-07-02T02:50:43;6.63;;;5.50;;
20462;SDS011;10390;53.566;9.980;2023-07-02T02:53:10;7.07;;;5.07;;
20462;SDS011;10390;53.566;9.980;2023-07-02T02:55:36;5.82;;;4.60;;
20462;SDS011;10390;53.566;9.980;2023-07-02T02:58:02;5.97;;;4.28;;
20462;SDS011;10390;53.566;9.980;2023-07-02T03:00:28;6.30;;;4.60;;
20462;SDS011;10390;53.566;9.980;2023-07-02T03:02:53;6.07;;;4.68;;
20462;SDS011;10390;53.566;9.980;2023-07-02T03:05:19;5.72;;;4.65;;
20462;SDS011;10390;53.566;9.980;2023-07-02T03:07:45;7.93;;;5.22;;
20462;SDS011;10390;53.566;9.980;2023-07-02T03:10:10;7.28;;;4.60;;
20462;SDS011;10390;53.566;9.980;2023-07-02T03:12:36;6.28;;;4.80;;
20462;SDS011;10390;53.566;9.980;2023-07-02T03:15:01;7.47;;;5.28;;
20462;SDS011;10390;53.566;9.980;2023-07-02T03:17:27;6.15;;;4.15;;
20462;SDS011;10390;53.566;9.980;2023-07-02T03:19:53;7.05;;;4.97;;
20462;SDS011;10390;53.566;9.980;2023-07-02T03:22:18;7.18;;;4.78;;
20462;SDS011;10390;53.566;9.980;2023-07-02T03:24:44;5.93;;;4.40;;
20462;SDS011;10390;53.566;9.980;2023-07-02T03:27:09;8.38;;;5.05;;
20462;SDS011;10390;53.566;9.980;2023-07-02T03:29:35;7.43;;;4.72;;
20462;SDS011;10390;53.566;9.980;2023-07-02T03:32:03;6.53;;;4.82;;
20462;SDS011;10390;53.566;9.980;2023-07-02T03:34:29;6.03;;;4.85;;
20462;SDS011;10390;53.566;9.980;2023-07-02T03:36:55;7.18;;;5.03;;
20462;SDS011;10390;53.566;9.980;2023-07-02T03:39:20;10.10;;;5.00;;
20462;SDS011;10390;53.566;9.980;2023-07-02T03:41:46;6.57;;;4.72;;
20462;SDS011;10390;53.566;9.980;2023-07-02T03:44:12;7.63;;;5.00;;
20462;SDS011;10390;53.566;9.980;2023-07-02T03:46:37;6.05;;;4.70;;
20462;SDS011;10390;53.566;9.980;2023-07-02T03:49:03;6.35;;;5.40;;
20462;SDS011;10390;53.566;9.980;2023-07-02T03:51:29;7.07;;;4.68;;
20462;SDS011;10390;53.566;9.980;2023-07-02T03:53:55;6.57;;;5.05;;
20462;SDS011;10390;53.566;9.980;2023-07-02T03:56:23;6.70;;;4.90;;
20462;SDS011;10390;53.566;9.980;2023-07-02T03:58:49;7.20;;;5.47;;
20462;SDS011;10390;53.566;9.980;2023-07-02T04:01:18;9.60;;;5.38;;
20462;SDS011;10390;53.566;9.980;2023-07-02T04:03:50;8.77;;;5.38;;
20462;SDS011;10390;53.566;9.980;2023-07-02T04:06:19;7.70;;;5.15;;
20462;SDS011;10390;53.566;9.980;2023-07-02T04:08:45;9.48;;;5.25;;
20462;SDS011;10390;53.566;9.980;2023-07-02T04:11:11;9.88;;;5.68;;
20462;SDS011;10390;53.566;9.980;2023-07-02T04:13:37;6.72;;;5.07;;
20462;SDS011;10390;53.566;9.980;2023-07-02T04:16:04;6.35;;;4.93;;
20462;SDS011;10390;53.566;9.980;2023-07-02T04:18:30;8.02;;;4.68;;
20462;SDS011;10390;53.566;9.980;2023-07-02T04:20:56;8.02;;;5.60;;
20462;SDS011;10390;53.566;9.980;2023-07-02T04:23:23;6.53;;;5.45;;
20462;SDS011;10390;53.566;9.980;2023-07-02T04:25:49;8.00;;;5.60;;
20462;SDS011;10390;53.566;9.980;2023-07-02T04:28:14;8.95;;;5.88;;
20462;SDS011;10390;53.566;9.980;2023-07-02T04:30:40;9.27;;;5.82;;
20462;SDS011;10390;53.566;9.980;2023-07-02T04:33:07;7.18;;;5.20;;
20462;SDS011;10390;53.566;9.980;2023-07-02T04:35:32;8.75;;;5.97;;
20462;SDS011;10390;53.566;9.980;2023-07-02T04:37:59;8.30;;;6.05;;
20462;SDS011;10390;53.566;9.980;2023-07-02T04:40:25;6.82;;;5.68;;
20462;SDS011;10390;53.566;9.980;2023-07-02T04:42:51;6.32;;;5.22;;
20462;SDS011;10390;53.566;9.980;2023-07-02T04:45:22;7.97;;;6.13;;
20462;SDS011;10390;53.566;9.980;2023-07-02T04:47:49;9.15;;;5.85;;
20462;SDS011;10390;53.566;9.980;2023-07-02T04:50:16;6.80;;;5.57;;
20462;SDS011;10390;53.566;9.980;2023-07-02T04:52:42;10.32;;;6.05;;
20462;SDS011;10390;53.566;9.980;2023-07-02T04:55:08;8.32;;;5.90;;
20462;SDS011;10390;53.566;9.980;2023-07-02T04:57:33;8.93;;;6.15;;
20462;SDS011;10390;53.566;9.980;2023-07-02T04:59:59;9.55;;;6.50;;
20462;SDS011;10390;53.566;9.980;2023-07-02T05:02:25;8.18;;;6.45;;
20462;SDS011;10390;53.566;9.980;2023-07-02T05:04:50;10.00;;;6.55;;
20462;SDS011;10390;53.566;9.980;2023-07-02T05:07:16;9.35;;;6.35;;
20462;SDS011;10390;53.566;9.980;2023-07-02T05:09:42;8.82;;;7.00;;
20462;SDS011;10390;53.566;9.980;2023-07-02T05:12:07;11.75;;;7.28;;
20462;SDS011;10390;53.566;9.980;2023-07-02T05:14:34;8.32;;;5.93;;
20462;SDS011;10390;53.566;9.980;2023-07-02T05:16:59;6.65;;;5.43;;
20462;SDS011;10390;53.566;9.980;2023-07-02T05:19:25;6.05;;;5.18;;
20462;SDS011;10390;53.566;9.980;2023-07-02T05:21:51;6.70;;;5.22;;
20462;SDS011;10390;53.566;9.980;2023-07-02T05:24:16;7.13;;;5.13;;
20462;SDS011;10390;53.566;9.980;2023-07-02T05:26:42;8.43;;;5.78;;
20462;SDS011;10390;53.566;9.980;2023-07-02T05:29:07;6.38;;;5.50;;
20462;SDS011;10390;53.566;9.980;2023-07-02T05:31:33;6.85;;;5.68;;
20462;SDS011;10390;53.566;9.980;2023-07-02T05:34:01;8.27;;;5.82;;
20462;SDS011;10390;53.566;9.980;2023-07-02T05:36:27;9.27;;;5.90;;
20462;SDS011;10390;53.566;9.980;2023-07-02T05:38:52;8.00;;;5.45;;
20462;SDS011;10390;53.566;9.980;2023-07-02T05:41:22;6.78;;;5.72;;
20462;SDS011;10390;53.566;9.980;2023-07-02T05:43:48;6.22;;;5.20;;
20462;SDS011;10390;53.566;9.980;2023-07-02T05:46:14;6.97;;;6.07;;
20462;SDS011;10390;53.566;9.980;2023-07-02T05:48:40;8.32;;;5.97;;
20462;SDS011;10390;53.566;9.980;2023-07-02T05:51:07;6.30;;;5.63;;
20462;SDS011;10390;53.566;9.980;2023-07-02T05:53:33;6.93;;;5.50;;
20462;SDS011;10390;53.566;9.980;2023-07-02T05:55:59;7.35;;;5.60;;
20462;SDS011;10390;53.566;9.980;2023-07-02T05:58:24;6.60;;;5.50;;
20462;SDS011;10390;53.566;9.980;2023-07-02T06:00:50;6.25;;;5.32;;
20462;SDS011;10390;53.566;9.980;2023-07-02T06:03:16;7.78;;;5.40;;
20462;SDS011;10390;53.566;9.980;2023-07-02T06:05:47;6.30;;;4.97;;
20462;SDS011;10390;53.566;9.980;2023-07-02T06:08:16;6.25;;;5.40;;
20462;SDS011;10390;53.566;9.980;2023-07-02T06:10:46;6.78;;;5.20;;
20462;SDS011;10390;53.566;9.980;2023-07-02T06:13:12;6.40;;;4.95;;
20462;SDS011;10390;53.566;9.980;2023-07-02T06:15:38;7.00;;;5.53;;
20462;SDS011;10390;53.566;9.980;2023-07-02T06:18:04;5.90;;;5.30;;
20462;SDS011;10390;53.566;9.980;2023-07-02T06:20:30;6.82;;;5.07;;
20462;SDS011;10390;53.566;9.980;2023-07-02T06:22:55;7.38;;;5.40;;
20462;SDS011;10390;53.566;9.980;2023-07-02T06:25:21;5.68;;;5.18;;
20462;SDS011;10390;53.566;9.980;2023-07-02T06:27:47;6.05;;;5.40;;
20462;SDS011;10390;53.566;9.980;2023-07-02T06:30:13;6.10;;;5.50;;
20462;SDS011;10390;53.566;9.980;2023-07-02T06:32:38;7.82;;;5.32;;
20462;SDS011;10390;53.566;9.980;2023-07-02T06:35:04;11.18;;;6.28;;
20462;SDS011;10390;53.566;9.980;2023-07-02T06:37:33;11.90;;;5.85;;
20462;SDS011;10390;53.566;9.980;2023-07-02T06:39:59;8.93;;;5.60;;
20462;SDS011;10390;53.566;9.980;2023-07-02T06:42:25;6.75;;;5.60;;
20462;SDS011;10390;53.566;9.980;2023-07-02T06:44:50;10.05;;;5.60;;
20462;SDS011;10390;53.566;9.980;2023-07-02T06:47:16;9.73;;;5.90;;
20462;SDS011;10390;53.566;9.980;2023-07-02T06:49:42;9.02;;;6.00;;
20462;SDS011;10390;53.566;9.980;2023-07-02T06:52:08;9.05;;;6.00;;
20462;SDS011;10390;53.566;9.980;2023-07-02T06:54:34;10.98;;;6.15;;
20462;SDS011;10390;53.566;9.980;2023-07-02T06:57:00;8.38;;;5.95;;
20462;SDS011;10390;53.566;9.980;2023-07-02T06:59:25;9.65;;;5.38;;
20462;SDS011;10390;53.566;9.980;2023-07-02T07:01:52;7.75;;;5.60;;
20462;SDS011;10390;53.566;9.980;2023-07-02T07:04:18;6.80;;;5.70;;
20462;SDS011;10390;53.566;9.980;2023-07-02T07:06:44;7.88;;;6.05;;
20462;SDS011;10390;53.566;9.980;2023-07-02T07:09:09;8.40;;;6.35;;
20462;SDS011;10390;53.566;9.980;2023-07-02T07:11:35;9.23;;;6.38;;
20462;SDS011;10390;53.566;9.980;2023-07-02T07:14:01;9.52;;;6.25;;
20462;SDS011;10390;53.566;9.980;2023-07-02T07:16:26;12.07;;;7.18;;
20462;SDS011;10390;53.566;9.980;2023-07-02T07:18:52;8.55;;;6.65;;
20462;SDS011;10390;53.566;9.980;2023-07-02T07:21:18;9.50;;;6.47;;
20462;SDS011;10390;53.566;9.980;2023-07-02T07:23:43;11.32;;;6.57;;
20462;SDS011;10390;53.566;9.980;2023-07-02T07:26:09;7.68;;;6.38;;
20462;SDS011;10390;53.566;9.980;2023-07-02T07:28:34;9.48;;;6.07;;
20462;SDS011;10390;53.566;9.980;2023-07-02T07:31:00;7.30;;;5.70;;
20462;SDS011;10390;53.566;9.980;2023-07-02T07:33:26;8.65;;;6.20;;
20462;SDS011;10390;53.566;9.980;2023-07-02T07:35:51;9.25;;;5.97;;
20462;SDS011;10390;53.566;9.980;2023-07-02T07:38:17;6.85;;;5.93;;
20462;SDS011;10390;53.566;9.980;2023-07-02T07:40:43;11.55;;;6.50;;
20462;SDS011;10390;53.566;9.980;2023-07-02T07:43:09;9.82;;;6.07;;
20462;SDS011;10390;53.566;9.980;2023-07-02T07:45:34;8.52;;;6.18;;
20462;SDS011;10390;53.566;9.980;2023-07-02T07:48:00;8.30;;;6.63;;
20462;SDS011;10390;53.566;9.980;2023-07-02T07:50:26;9.73;;;6.57;;
20462;SDS011;10390;53.566;9.980;2023-07-02T07:52:52;8.98;;;6.82;;
20462;SDS011;10390;53.566;9.980;2023-07-02T07:55:18;10.52;;;6.65;;
20462;SDS011;10390;53.566;9.980;2023-07-02T07:57:43;11.30;;;6.90;;
20462;SDS011;10390;53.566;9.980;2023-07-02T08:00:09;8.68;;;6.30;;
20462;SDS011;10390;53.566;9.980;2023-07-02T08:02:36;8.55;;;7.00;;
20462;SDS011;10390;53.566;9.980;2023-07-02T08:05:01;10.30;;;6.80;;
20462;SDS011;10390;53.566;9.980;2023-07-02T08:07:28;8.65;;;6.75;;
20462;SDS011;10390;53.566;9.980;2023-07-02T08:09:53;11.52;;;6.95;;
20462;SDS011;10390;53.566;9.980;2023-07-02T08:12:19;9.02;;;6.65;;
20462;SDS011;10390;53.566;9.980;2023-07-02T08:14:44;9.48;;;6.28;;
20462;SDS011;10390;53.566;9.980;2023-07-02T08:17:10;7.57;;;6.20;;
20462;SDS011;10390;53.566;9.980;2023-07-02T08:19:36;9.57;;;5.95;;
20462;SDS011;10390;53.566;9.980;2023-07-02T08:22:01;10.43;;;6.50;;
20462;SDS011;10390;53.566;9.980;2023-07-02T08:24:28;10.25;;;6.90;;
20462;SDS011;10390;53.566;9.980;2023-07-02T08:26:55;11.10;;;6.90;;
20462;SDS011;10390;53.566;9.980;2023-07-02T08:29:21;8.95;;;6.70;;
20462;SDS011;10390;53.566;9.980;2023-07-02T08:31:47;9.95;;;6.57;;
20462;SDS011;10390;53.566;9.980;2023-07-02T08:34:12;8.77;;;6.55;;
20462;SDS011;10390;53.566;9.980;2023-07-02T08:36:38;7.85;;;7.05;;
20462;SDS011;10390;53.566;9.980;2023-07-02T08:39:04;12.75;;;7.28;;
20462;SDS011;10390;53.566;9.980;2023-07-02T08:41:30;11.98;;;7.45;;
20462;SDS011;10390;53.566;9.980;2023-07-02T08:43:56;10.95;;;7.70;;
20462;SDS011;10390;53.566;9.980;2023-07-02T08:46:23;9.95;;;7.28;;
20462;SDS011;10390;53.566;9.980;2023-07-02T08:48:48;9.15;;;7.65;;
20462;SDS011;10390;53.566;9.980;2023-07-02T08:51:14;8.32;;;7.10;;
20462;SDS011;10390;53.566;9.980;2023-07-02T08:53:40;11.05;;;7.35;;
20462;SDS011;10390;53.566;9.980;2023-07-02T08:56:06;9.32;;;7.03;;
20462;SDS011;10390;53.566;9.980;2023-07-02T08:58:31;9.52;;;7.35;;
20462;SDS011;10390;53.566;9.980;2023-07-02T09:01:07;9.20;;;7.00;;
20462;SDS011;10390;53.566;9.980;2023-07-02T09:03:37;8.55;;;6.50;;
20462;SDS011;10390;53.566;9.980;2023-07-02T09:06:04;9.35;;;6.57;;
20462;SDS011;10390;53.566;9.980;2023-07-02T09:08:30;8.45;;;6.15;;
20462;SDS011;10390;53.566;9.980;2023-07-02T09:11:19;7.85;;;6.28;;
20462;SDS011;10390;53.566;9.980;2023-07-02T09:13:45;10.15;;;7.15;;
20462;SDS011;10390;53.566;9.980;2023-07-02T09:16:21;8.25;;;6.10;;
20462;SDS011;10390;53.566;9.980;2023-07-02T09:21:27;9.27;;;6.70;;
20462;SDS011;10390;53.566;9.980;2023-07-02T09:24:11;10.90;;;6.82;;
20462;SDS011;10390;53.566;9.980;2023-07-02T09:26:44;10.60;;;7.57;;
20462;SDS011;10390;53.566;9.980;2023-07-02T09:29:18;10.05;;;6.85;;
20462;SDS011;10390;53.566;9.980;2023-07-02T09:31:47;11.27;;;6.72;;
20462;SDS011;10390;53.566;9.980;2023-07-02T09:34:13;11.68;;;7.13;;
20462;SDS011;10390;53.566;9.980;2023-07-02T09:36:39;12.88;;;6.50;;
20462;SDS011;10390;53.566;9.980;2023-07-02T09:39:18;15.10;;;6.65;;
20462;SDS011;10390;53.566;9.980;2023-07-02T09:41:46;12.43;;;6.60;;
20462;SDS011;10390;53.566;9.980;2023-07-02T09:44:14;12.55;;;6.82;;
20462;SDS011;10390;53.566;9.980;2023-07-02T09:46:41;10.73;;;7.15;;
20462;SDS011;10390;53.566;9.980;2023-07-02T09:49:12;11.48;;;7.10;;
20462;SDS011;10390;53.566;9.980;2023-07-02T09:51:41;13.75;;;7.20;;
20462;SDS011;10390;53.566;9.980;2023-07-02T09:54:08;16.15;;;7.93;;
20462;SDS011;10390;53.566;9.980;2023-07-02T09:56:34;15.07;;;8.50;;
20462;SDS011;10390;53.566;9.980;2023-07-02T09:58:59;12.02;;;7.72;;
20462;SDS011;10390;53.566;9.980;2023-07-02T10:01:25;13.48;;;7.38;;
20462;SDS011;10390;53.566;9.980;2023-07-02T10:03:50;14.18;;;7.15;;
20462;SDS011;10390;53.566;9.980;2023-07-02T10:06:16;9.90;;;7.15;;
20462;SDS011;10390;53.566;9.980;2023-07-02T10:08:51;12.13;;;7.55;;
20462;SDS011;10390;53.566;9.980;2023-07-02T10:11:18;9.85;;;7.88;;
20462;SDS011;10390;53.566;9.980;2023-07-02T10:13:44;11.63;;;7.97;;
20462;SDS011;10390;53.566;9.980;2023-07-02T10:16:09;14.55;;;7.43;;
20462;SDS011;10390;53.566;9.980;2023-07-02T10:18:35;11.40;;;6.82;;
20462;SDS011;10390;53.566;9.980;2023-07-02T10:21:12;11.93;;;7.15;;
20462;SDS011;10390;53.566;9.980;2023-07-02T10:23:41;10.82;;;6.72;;
20462;SDS011;10390;53.566;9.980;2023-07-02T10:26:13;9.90;;;6.90;;
20462;SDS011;10390;53.566;9.980;2023-07-02T10:28:39;9.50;;;6.95;;
20462;SDS011;10390;53.566;9.980;2023-07-02T10:31:04;10.60;;;6.60;;
20462;SDS011;10390;53.566;9.980;2023-07-02T10:33:43;8.88;;;7.47;;
20462;SDS011;10390;53.566;9.980;2023-07-02T10:36:16;15.10;;;7.10;;
20462;SDS011;10390;53.566;9.980;2023-07-02T10:38:43;14.20;;;7.10;;
20462;SDS011;10390;53.566;9.980;2023-07-02T10:41:09;11.85;;;6.78;;
20462;SDS011;10390;53.566;9.980;2023-07-02T10:43:34;10.18;;;7.15;;
20462;SDS011;10390;53.566;9.980;2023-07-02T10:46:00;14.07;;;7.18;;
20462;SDS011;10390;53.566;9.980;2023-07-02T10:48:26;14.48;;;7.50;;
20462;SDS011;10390;53.566;9.980;2023-07-02T10:50:52;10.88;;;6.35;;
20462;SDS011;10390;53.566;9.980;2023-07-02T10:53:18;12.57;;;7.45;;
20462;SDS011;10390;53.566;9.980;2023-07-02T10:55:44;12.43;;;7.00;;
20462;SDS011;10390;53.566;9.980;2023-07-02T10:58:11;11.23;;;7.68;;
20462;SDS011;10390;53.566;9.980;2023-07-02T11:00:50;12.70;;;7.53;;
20462;SDS011;10390;53.566;9.980;2023-07-02T11:03:19;9.93;;;7.03;;
20462;SDS011;10390;53.566;9.980;2023-07-02T11:05:49;13.38;;;7.18;;
20462;SDS011;10390;53.566;9.980;2023-07-02T11:08:15;8.65;;;6.82;;
20462;SDS011;10390;53.566;9.980;2023-07-02T11:10:42;10.55;;;7.10;;
20462;SDS011;10390;53.566;9.980;2023-07-02T11:13:14;11.55;;;7.05;;
20462;SDS011;10390;53.566;9.980;2023-07-02T11:15:42;10.70;;;7.22;;
20462;SDS011;10390;53.566;9.980;2023-07-02T11:18:12;8.25;;;6.82;;
20462;SDS011;10390;53.566;9.980;2023-07-02T11:20:39;9.38;;;6.70;;
20462;SDS011;10390;53.566;9.980;2023-07-02T11:23:21;13.60;;;7.97;;
20462;SDS011;10390;53.566;9.980;2023-07-02T11:25:58;11.05;;;7.43;;
20462;SDS011;10390;53.566;9.980;2023-07-02T11:28:28;8.88;;;6.70;;
20462;SDS011;10390;53.566;9.980;2023-07-02T11:30:56;12.40;;;6.82;;
20462;SDS011;10390;53.566;9.980;2023-07-02T11:33:40;13.55;;;6.75;;
20462;SDS011;10390;53.566;9.980;2023-07-02T11:36:07;11.45;;;6.85;;
20462;SDS011;10390;53.566;9.980;2023-07-02T11:38:44;9.40;;;7.10;;
20462;SDS011;10390;53.566;9.980;2023-07-02T11:41:10;8.90;;;6.63;;
20462;SDS011;10390;53.566;9.980;2023-07-02T11:43:36;8.85;;;6.65;;
20462;SDS011;10390;53.566;9.980;2023-07-02T11:46:03;11.95;;;6.75;;
20462;SDS011;10390;53.566;9.980;2023-07-02T11:48:29;13.02;;;6.35;;
20462;SDS011;10390;53.566;9.980;2023-07-02T11:50:54;12.88;;;7.10;;
20462;SDS011;10390;53.566;9.980;2023-07-02T11:53:20;8.50;;;6.63;;
20462;SDS011;10390;53.566;9.980;2023-07-02T11:55:45;12.50;;;7.30;;
20462;SDS011;10390;53.566;9.980;2023-07-02T11:58:11;10.55;;;6.50;;
20462;SDS011;10390;53.566;9.980;2023-07-02T12:00:37;10.80;;;6.70;;
20462;SDS011;10390;53.566;9.980;2023-07-02T12:03:02;10.82;;;6.70;;
20462;SDS011;10390;53.566;9.980;2023-07-02T12:05:28;7.80;;;6.43;;
20462;SDS011;10390;53.566;9.980;2023-07-02T12:07:53;10.60;;;6.60;;
20462;SDS011;10390;53.566;9.980;2023-07-02T12:10:19;9.60;;;6.45;;
20462;SDS011;10390;53.566;9.980;2023-07-02T12:12:44;10.55;;;6.40;;
20462;SDS011;10390;53.566;9.980;2023-07-02T12:15:10;9.65;;;6.65;;
20462;SDS011;10390;53.566;9.980;2023-07-02T12:17:36;8.30;;;6.10;;
20462;SDS011;10390;53.566;9.980;2023-07-02T12:20:01;9.95;;;5.82;;
20462;SDS011;10390;53.566;9.980;2023-07-02T12:22:28;8.25;;;6.05;;
20462;SDS011;10390;53.566;9.980;2023-07-02T12:24:53;8.85;;;6.30;;
20462;SDS011;10390;53.566;9.980;2023-07-02T12:27:21;8.32;;;6.10;;
20462;SDS011;10390;53.566;9.980;2023-07-02T12:29:47;9.43;;;7.10;;
20462;SDS011;10390;53.566;9.980;2023-07-02T12:32:13;8.07;;;5.90;;
20462;SDS011;10390;53.566;9.980;2023-07-02T12:34:39;8.68;;;6.60;;
20462;SDS011;10390;53.566;9.980;2023-07-02T12:37:05;8.93;;;6.55;;
20462;SDS011;10390;53.566;9.980;2023-07-02T12:39:31;9.23;;;6.95;;
20462;SDS011;10390;53.566;9.980;2023-07-02T12:41:56;10.50;;;6.43;;
20462;SDS011;10390;53.566;9.980;2023-07-02T12:44:22;8.18;;;6.45;;
20462;SDS011;10390;53.566;9.980;2023-07-02T12:46:47;9.63;;;6.70;;
20462;SDS011;10390;53.566;9.980;2023-07-02T12:49:13;8.13;;;5.78;;
20462;SDS011;10390;53.566;9.980;2023-07-02T12:51:39;8.35;;;5.95;;
20462;SDS011;10390;53.566;9.980;2023-07-02T12:54:04;9.13;;;6.20;;
20462;SDS011;10390;53.566;9.980;2023-07-02T12:56:30;8.13;;;6.05;;
20462;SDS011;10390;53.566;9.980;2023-07-02T12:58:55;8.40;;;6.40;;
20462;SDS011;10390;53.566;9.980;2023-07-02T13:01:21;6.35;;;5.22;;
20462;SDS011;10390;53.566;9.980;2023-07-02T13:03:48;8.02;;;5.90;;
20462;SDS011;10390;53.566;9.980;2023-07-02T13:06:15;8.90;;;6.15;;
20462;SDS011;10390;53.566;9.980;2023-07-02T13:08:40;8.35;;;6.53;;
20462;SDS011;10390;53.566;9.980;2023-07-02T13:11:07;10.35;;;6.28;;
20462;SDS011;10390;53.566;9.980;2023-07-02T13:13:34;9.85;;;6.88;;
20462;SDS011;10390;53.566;9.980;2023-07-02T13:16:01;10.45;;;6.55;;
20462;SDS011;10390;53.566;9.980;2023-07-02T13:18:27;11.10;;;6.40;;
20462;SDS011;10390;53.566;9.980;2023-07-02T13:20:52;8.90;;;6.30;;
20462;SDS011;10390;53.566;9.980;2023-07-02T13:23:18;9.30;;;6.50;;
20462;SDS011;10390;53.566;9.980;2023-07-02T13:25:44;11.88;;;6.00;;
20462;SDS011;10390;53.566;9.980;2023-07-02T13:28:09;9.85;;;6.25;;
20462;SDS011;10390;53.566;9.980;2023-07-02T13:30:35;8.98;;;6.75;;
20462;SDS011;10390;53.566;9.980;2023-07-02T13:33:01;6.85;;;5.45;;
20462;SDS011;10390;53.566;9.980;2023-07-02T13:35:26;8.48;;;6.07;;
20462;SDS011;10390;53.566;9.980;2023-07-02T13:37:52;9.88;;;6.20;;
20462;SDS011;10390;53.566;9.980;2023-07-02T13:40:18;10.18;;;6.05;;
20462;SDS011;10390;53.566;9.980;2023-07-02T13:42:43;8.50;;;5.45;;
20462;SDS011;10390;53.566;9.980;2023-07-02T13:45:09;7.38;;;5.97;;
20462;SDS011;10390;53.566;9.980;2023-07-02T13:47:35;7.80;;;5.60;;
20462;SDS011;10390;53.566;9.980;2023-07-02T13:50:02;7.38;;;5.50;;
20462;SDS011;10390;53.566;9.980;2023-07-02T13:52:29;7.97;;;6.63;;
20462;SDS011;10390;53.566;9.980;2023-07-02T13:54:55;6.45;;;5.57;;
20462;SDS011;10390;53.566;9.980;2023-07-02T13:57:21;7.97;;;6.10;;
20462;SDS011;10390;53.566;9.980;2023-07-02T13:59:46;7.80;;;5.47;;
20462;SDS011;10390;53.566;9.980;2023-07-02T14:02:12;9.02;;;6.25;;
20462;SDS011;10390;53.566;9.980;2023-07-02T14:04:38;9.35;;;6.60;;
20462;SDS011;10390;53.566;9.980;2023-07-02T14:07:04;8.35;;;5.95;;
20462;SDS011;10390;53.566;9.980;2023-07-02T14:09:30;7.70;;;5.78;;
20462;SDS011;10390;53.566;9.980;2023-07-02T14:11:56;8.32;;;5.93;;
20462;SDS011;10390;53.566;9.980;2023-07-02T14:14:21;7.78;;;5.80;;
20462;SDS011;10390;53.566;9.980;2023-07-02T14:16:47;7.47;;;5.75;;
20462;SDS011;10390;53.566;9.980;2023-07-02T14:19:13;10.65;;;6.07;;
20462;SDS011;10390;53.566;9.980;2023-07-02T14:21:38;9.68;;;5.32;;
20462;SDS011;10390;53.566;9.980;2023-07-02T14:24:04;10.13;;;5.95;;
20462;SDS011;10390;53.566;9.980;2023-07-02T14:26:30;8.20;;;5.13;;
20462;SDS011;10390;53.566;9.980;2023-07-02T14:28:56;8.20;;;6.13;;
20462;SDS011;10390;53.566;9.980;2023-07-02T14:31:23;7.75;;;5.50;;
20462;SDS011;10390;53.566;9.980;2023-07-02T14:33:48;8.48;;;5.85;;
20462;SDS011;10390;53.566;9.980;2023-07-02T14:36:14;8.25;;;5.07;;
20462;SDS011;10390;53.566;9.980;2023-07-02T14:38:39;7.38;;;5.18;;
20462;SDS011;10390;53.566;9.980;2023-07-02T14:41:05;7.95;;;5.60;;
20462;SDS011;10390;53.566;9.980;2023-07-02T14:43:31;6.22;;;5.57;;
20462;SDS011;10390;53.566;9.980;2023-07-02T14:45:58;8.60;;;5.57;;